Time;durP1;ratioP1;P1;durP2;ratioP2;P2;SDS_P1;SDS_P2;PMS_P1;PMS_P2;Temp;Humidity;BMP_temperature;BMP_pressure;BME280_temperature;BME280_humidity;BME280_pressure;Samples;Min_cycle;Max_cycle;Signal;HPM_P1;HPM_P2
2022/09/06 00:02:05;;;;;;;2.73;2.53;;;25.00;50.80;;;;;;5041365;28;20402;-80
2022/09/06 00:04:39;;;;;;;2.57;2.30;;;25.00;50.80;;;;;;5042333;28;20450;-79
2022/09/06 00:07:06;;;;;;;3.97;2.80;;;25.00;50.80;;;;;;5040288;28;20421;-82
2022/09/06 00:09:33;;;;;;;2.47;2.27;;;25.00;50.70;;;;;;5037817;28;20417;-82
2022/09/06 00:12:00;;;;;;;3.70;2.80;;;25.00;50.70;;;;;;5038008;28;20410;-82
2022/09/06 00:14:27;;;;;;;3.30;2.37;;;25.00;50.70;;;;;;5055518;28;20425;-82
2022/09/06 00:16:55;;;;;;;2.90;2.70;;;25.00;50.70;;;;;;5038160;28;20428;-82
2022/09/06 00:19:22;;;;;;;2.97;2.67;;;25.00;50.80;;;;;;5038326;28;20469;-82
2022/09/06 00:21:50;;;;;;;2.50;2.07;;;25.00;50.70;;;;;;5038031;28;20441;-82
2022/09/06 00:24:16;;;;;;;2.57;2.37;;;25.00;50.80;;;;;;5038154;28;20461;-82
2022/09/06 00:26:43;;;;;;;3.40;2.53;;;25.00;50.80;;;;;;5055991;28;20402;-81
2022/09/06 00:29:14;;;;;;;3.20;2.87;;;25.00;50.80;;;;;;5038167;28;20438;-83
2022/09/06 00:31:44;;;;;;;2.80;2.50;;;25.00;50.80;;;;;;5038095;28;20414;-82
2022/09/06 00:34:13;;;;;;;2.93;2.43;;;25.00;50.80;;;;;;5037829;28;20414;-81
2022/09/06 00:36:40;;;;;;;2.60;2.40;;;25.00;50.80;;;;;;5037857;28;20434;-82
2022/09/06 00:39:06;;;;;;;2.73;2.53;;;25.00;50.80;;;;;;5037854;28;20414;-82
2022/09/06 00:41:36;;;;;;;2.93;2.63;;;25.00;50.70;;;;;;5037293;28;20414;-82
2022/09/06 00:44:04;;;;;;;2.87;2.50;;;25.00;50.80;;;;;;5036442;28;20458;-82
2022/09/06 00:46:42;;;;;;;2.50;2.30;;;25.00;50.80;;;;;;5037938;28;20403;-83
2022/09/06 00:49:38;;;;;;;3.13;2.67;;;25.00;50.90;;;;;;5036854;28;20410;-82
2022/09/06 00:52:11;;;;;;;3.27;2.47;;;25.00;50.90;;;;;;4939271;29;20411;-82
2022/09/06 00:54:41;;;;;;;2.50;2.30;;;25.00;51.00;;;;;;4937496;29;20422;-82
2022/09/06 00:57:09;;;;;;;3.87;3.17;;;25.00;50.90;;;;;;4935973;29;20419;-84
2022/09/06 00:59:41;;;;;;;3.00;2.70;;;25.00;50.90;;;;;;4933170;29;20423;-84
2022/09/06 01:02:08;;;;;;;2.93;2.43;;;25.00;51.00;;;;;;4949343;29;20519;-84
2022/09/06 01:04:36;;;;;;;2.50;2.30;;;25.00;51.00;;;;;;4933164;29;20462;-84
2022/09/06 01:07:16;;;;;;;3.07;2.40;;;25.00;51.00;;;;;;4932682;29;20499;-83
2022/09/06 01:09:45;;;;;;;3.33;2.70;;;25.00;51.00;;;;;;4933417;29;20415;-83
2022/09/06 01:12:26;;;;;;;2.93;2.63;;;25.00;51.00;;;;;;4935743;29;20508;-83
2022/09/06 01:15:28;;;;;;;2.53;2.33;;;25.00;51.00;;;;;;4951884;29;20427;-83
2022/09/06 01:18:29;;;;;;;3.07;2.77;;;25.00;51.00;;;;;;4944235;29;20446;-81
2022/09/06 01:21:22;;;;;;;2.70;2.50;;;25.00;50.90;;;;;;4958578;29;20421;-81
2022/09/06 01:24:09;;;;;;;2.90;2.60;;;25.00;51.10;;;;;;4956083;29;20447;-81
2022/09/06 01:26:48;;;;;;;3.50;2.53;;;25.00;51.60;;;;;;4939619;29;20438;-81
2022/09/06 01:29:43;;;;;;;3.80;2.53;;;24.90;51.00;;;;;;5006614;28;20444;-82
2022/09/06 01:32:32;;;;;;;3.27;2.53;;;25.00;51.10;;;;;;5054852;28;20387;-81
2022/09/06 01:35:38;;;;;;;4.13;3.30;;;24.90;51.10;;;;;;5037014;28;20418;-81
2022/09/06 01:38:07;;;;;;;3.53;2.70;;;24.90;51.10;;;;;;5034645;28;20415;-81
2022/09/06 01:40:36;;;;;;;2.80;2.60;;;24.90;51.10;;;;;;5042803;28;20407;-81
2022/09/06 01:43:24;;;;;;;3.13;2.50;;;24.90;51.10;;;;;;5058498;28;20430;-80
2022/09/06 01:46:14;;;;;;;2.90;2.70;;;24.90;51.10;;;;;;5056858;28;20414;-81
2022/09/06 01:49:18;;;;;;;2.63;2.43;;;24.90;51.20;;;;;;5055039;28;20417;-81
2022/09/06 01:51:53;;;;;;;3.30;3.00;;;24.90;51.20;;;;;;5038354;28;20414;-81
2022/09/06 01:54:41;;;;;;;3.20;2.60;;;24.90;51.20;;;;;;5038147;28;20406;-81
2022/09/06 01:57:46;;;;;;;2.87;2.63;;;24.90;51.20;;;;;;5039359;28;20411;-80
2022/09/06 02:00:21;;;;;;;2.40;2.20;;;24.90;51.20;;;;;;5039961;28;20415;-81
2022/09/06 02:03:09;;;;;;;3.20;2.80;;;24.90;51.30;;;;;;5040317;28;20441;-81
2022/09/06 02:05:42;;;;;;;2.30;2.10;;;24.90;51.20;;;;;;5034393;28;20481;-83
2022/09/06 02:08:13;;;;;;;2.37;2.17;;;24.90;51.20;;;;;;5030195;28;20450;-83
2022/09/06 02:10:50;;;;;;;2.60;2.30;;;24.90;51.20;;;;;;5029881;28;20433;-83
2022/09/06 02:13:21;;;;;;;2.43;2.23;;;24.90;51.20;;;;;;5029751;28;20518;-83
2022/09/06 02:16:11;;;;;;;2.70;2.50;;;24.90;51.20;;;;;;5046777;28;20490;-84
2022/09/06 02:18:44;;;;;;;2.70;2.50;;;25.00;51.30;;;;;;5014474;28;20435;-84
2022/09/06 02:21:16;;;;;;;2.43;2.23;;;25.00;51.30;;;;;;5029770;28;20415;-83
2022/09/06 02:23:45;;;;;;;3.10;2.80;;;25.00;51.40;;;;;;5028828;28;20458;-83
2022/09/06 02:26:29;;;;;;;3.37;2.50;;;25.00;51.40;;;;;;5029247;28;20421;-83
2022/09/06 02:29:06;;;;;;;2.50;2.30;;;25.00;51.40;;;;;;5029026;28;20478;-83
2022/09/06 02:35:11;;;;;;;2.80;2.50;;;25.00;51.40;;;;;;4954315;29;20443;-81
2022/09/06 02:37:58;;;;;;;2.73;2.37;;;24.90;51.30;;;;;;4938034;29;20416;-82
2022/09/06 02:40:26;;;;;;;2.20;2.00;;;24.90;51.30;;;;;;4959705;29;20418;-81
2022/09/06 02:43:02;;;;;;;2.63;2.43;;;24.90;51.30;;;;;;4942700;29;20452;-81
2022/09/06 02:45:37;;;;;;;2.93;2.60;;;24.90;51.30;;;;;;4921824;29;20472;-81
2022/09/06 02:48:10;;;;;;;2.67;2.47;;;25.00;51.40;;;;;;4917826;29;20408;-81
2022/09/06 02:50:40;;;;;;;3.40;3.10;;;24.90;51.30;;;;;;4933750;29;20415;-81
2022/09/06 02:53:15;;;;;;;2.53;2.33;;;24.90;51.30;;;;;;4916920;29;20412;-81
2022/09/06 02:55:43;;;;;;;2.63;2.43;;;24.90;51.30;;;;;;4917560;29;20415;-81
2022/09/06 02:58:23;;;;;;;3.17;2.87;;;24.90;51.30;;;;;;4916954;29;20424;-81
2022/09/06 03:00:51;;;;;;;3.80;3.10;;;24.90;51.30;;;;;;4915510;29;20515;-83
2022/09/06 03:03:26;;;;;;;3.00;2.70;;;25.00;51.40;;;;;;4911546;29;20426;-83
2022/09/06 03:05:54;;;;;;;2.40;2.20;;;24.90;51.30;;;;;;4912258;29;20510;-83
2022/09/06 03:08:25;;;;;;;4.30;2.90;;;25.00;51.40;;;;;;4927598;29;20464;-83
2022/09/06 03:10:53;;;;;;;3.33;3.03;;;24.90;51.30;;;;;;4953553;28;20490;-83
2022/09/06 03:13:25;;;;;;;2.77;2.57;;;24.90;51.30;;;;;;5008491;28;20428;-83
2022/09/06 03:15:59;;;;;;;2.70;2.50;;;25.00;51.40;;;;;;5009142;28;20416;-84
2022/09/06 03:18:29;;;;;;;3.33;2.97;;;24.90;51.30;;;;;;5024416;28;20451;-83
2022/09/06 03:21:02;;;;;;;3.07;2.77;;;24.90;51.30;;;;;;5008838;28;20412;-83
2022/09/06 03:23:32;;;;;;;3.03;2.83;;;24.90;51.40;;;;;;5008919;28;20416;-83
2022/09/06 03:26:02;;;;;;;2.27;2.07;;;24.90;51.30;;;;;;5024773;28;20408;-84
2022/09/06 03:28:42;;;;;;;3.50;2.53;;;24.90;51.30;;;;;;5024296;28;20863;-83
2022/09/06 03:31:17;;;;;;;2.87;2.67;;;24.90;51.20;;;;;;5024654;28;20433;-84
2022/09/06 03:33:47;;;;;;;2.60;2.40;;;24.90;51.30;;;;;;5009003;28;20422;-84
2022/09/06 03:36:18;;;;;;;3.83;2.70;;;24.90;51.30;;;;;;5024457;28;20416;-83
2022/09/06 03:38:52;;;;;;;3.43;3.13;;;24.90;51.30;;;;;;5025888;28;20380;-83
2022/09/06 03:41:19;;;;;;;2.70;2.33;;;24.90;51.30;;;;;;5024984;28;20403;-84
2022/09/06 03:43:46;;;;;;;3.00;2.80;;;24.90;51.30;;;;;;5033074;28;20494;-81
2022/09/06 03:46:16;;;;;;;3.40;3.10;;;24.90;51.30;;;;;;5039063;28;20453;-81
2022/09/06 03:48:43;;;;;;;2.90;2.70;;;24.90;51.20;;;;;;5038465;28;20483;-81
2022/09/06 03:51:14;;;;;;;2.87;2.57;;;24.90;51.30;;;;;;5038747;28;20410;-81
2022/09/06 03:53:44;;;;;;;3.30;2.87;;;25.00;51.30;;;;;;5038178;28;20415;-81
2022/09/06 03:56:14;;;;;;;4.17;3.60;;;24.90;51.20;;;;;;5016163;28;20399;-81
2022/09/06 03:58:52;;;;;;;3.00;2.80;;;24.90;51.30;;;;;;5032669;28;20434;-81
2022/09/06 04:01:23;;;;;;;2.60;2.40;;;24.90;51.30;;;;;;5035403;28;20418;-81
2022/09/06 04:03:52;;;;;;;3.20;2.63;;;24.90;51.30;;;;;;5033023;28;20762;-83
2022/09/06 04:06:24;;;;;;;3.37;3.07;;;24.90;51.40;;;;;;5027863;28;20418;-83
2022/09/06 04:08:50;;;;;;;5.67;2.93;;;24.90;51.30;;;;;;5027517;28;20478;-83
2022/09/06 04:11:22;;;;;;;3.27;2.97;;;24.90;51.30;;;;;;5027694;28;20414;-83
2022/09/06 04:13:51;;;;;;;2.47;2.27;;;24.90;51.30;;;;;;5028379;28;20426;-82
2022/09/06 04:16:18;;;;;;;3.30;2.90;;;24.90;51.30;;;;;;5032034;28;20414;-82
2022/09/06 04:18:52;;;;;;;3.10;2.80;;;24.90;51.30;;;;;;5050526;28;20434;-82
2022/09/06 04:21:22;;;;;;;3.03;2.50;;;24.90;51.40;;;;;;5033390;28;20423;-82
2022/09/06 04:24:28;;;;;;;3.30;3.00;;;24.90;51.40;;;;;;5033193;28;20462;-82
2022/09/06 04:26:58;;;;;;;;;;;;;;;;;;;;;
2022/09/06 04:29:34;;;;;;;3.20;2.90;;;24.90;51.40;;;;;;5051975;28;20421;-82
2022/09/06 04:32:03;;;;;;;3.00;2.80;;;24.90;51.50;;;;;;5038381;28;20418;-82
2022/09/06 04:34:33;;;;;;;4.30;3.30;;;24.90;51.50;;;;;;5038205;28;20429;-82
2022/09/06 04:37:16;;;;;;;;;;;;;;;;;;;;;
2022/09/06 04:39:53;;;;;;;3.97;2.93;;;24.90;51.40;;;;;;5054212;28;20422;-81
2022/09/06 04:42:23;;;;;;;4.13;3.30;;;24.90;51.40;;;;;;5035884;28;20445;-81
2022/09/06 04:44:57;;;;;;;3.10;2.90;;;24.80;51.40;;;;;;5052294;28;20458;-82
2022/09/06 04:47:35;;;;;;;3.30;3.00;;;24.80;51.30;;;;;;5033737;28;20418;-81
2022/09/06 04:50:03;;;;;;;3.90;3.10;;;24.90;51.40;;;;;;5034863;28;20415;-81
2022/09/06 04:52:40;;;;;;;3.30;3.00;;;24.80;51.40;;;;;;5035640;28;20415;-81
2022/09/06 04:55:13;;;;;;;3.40;3.10;;;24.90;51.50;;;;;;5052397;28;20414;-81
2022/09/06 04:57:57;;;;;;;3.40;3.10;;;24.80;51.40;;;;;;5037142;28;20934;-81
2022/09/06 05:01:01;;;;;;;3.30;3.00;;;24.80;51.40;;;;;;5036393;28;20410;-80
2022/09/06 05:03:39;;;;;;;3.60;3.30;;;24.80;51.40;;;;;;5027817;28;20435;-80
2022/09/06 05:06:51;;;;;;;;;;;;;;;;;;;;;
2022/09/06 05:09:14;;;;;;;3.73;3.37;;;24.80;51.40;;;;;;5043040;28;20489;-82
2022/09/06 05:11:48;;;;;;;2.67;2.47;;;24.80;51.80;;;;;;5036756;28;20691;-81
2022/09/06 05:14:20;;;;;;;3.73;3.17;;;24.80;52.00;;;;;;5052738;28;20407;-83
2022/09/06 05:16:46;;;;;;;3.10;2.80;;;24.80;51.40;;;;;;5047739;28;20411;-83
2022/09/06 05:19:16;;;;;;;3.30;3.10;;;24.80;51.40;;;;;;5050586;28;20421;-81
2022/09/06 05:22:03;;;;;;;4.17;3.43;;;24.80;51.40;;;;;;5036383;28;20490;-80
2022/09/06 05:24:30;;;;;;;4.17;3.87;;;24.80;51.40;;;;;;5036353;28;20461;-80
2022/09/06 05:27:02;;;;;;;3.83;3.23;;;24.80;51.50;;;;;;5035835;28;20410;-80
2022/09/06 05:29:31;;;;;;;3.87;3.53;;;24.80;51.50;;;;;;5033792;28;20875;-81
2022/09/06 05:32:00;;;;;;;3.63;3.03;;;24.80;51.40;;;;;;5036071;28;20422;-81
2022/09/06 05:34:27;;;;;;;4.43;3.10;;;24.80;51.50;;;;;;5036364;28;20422;-81
2022/09/06 05:37:02;;;;;;;3.33;3.00;;;24.80;51.50;;;;;;5019788;28;20506;-81
2022/09/06 05:42:24;;;;;;;3.73;3.43;;;24.80;51.50;;;;;;4992567;28;20529;-80
2022/09/06 05:44:54;;;;;;;4.30;3.30;;;24.80;51.60;;;;;;4992558;28;20460;-80
2022/09/06 05:47:21;;;;;;;3.73;3.20;;;24.80;51.60;;;;;;4993009;28;20480;-81
2022/09/06 05:50:01;;;;;;;3.57;3.27;;;24.80;51.70;;;;;;4977203;28;20425;-82
2022/09/06 05:52:28;;;;;;;3.47;3.17;;;24.80;51.70;;;;;;4992373;28;20436;-82
2022/09/06 05:55:00;;;;;;;3.70;3.40;;;24.80;51.70;;;;;;4993065;28;20441;-81
2022/09/06 05:57:39;;;;;;;3.60;3.30;;;24.80;51.60;;;;;;4975830;28;20421;-81
2022/09/06 06:00:17;;;;;;;2.77;2.57;;;24.80;51.80;;;;;;4954035;29;20503;-80
2022/09/06 06:02:52;;;;;;;3.63;3.33;;;24.80;51.70;;;;;;4972407;28;20520;-81
2022/09/06 06:05:20;;;;;;;3.80;3.50;;;24.80;51.70;;;;;;4992583;28;20463;-81
2022/09/06 06:07:52;;;;;;;3.43;3.13;;;24.80;51.70;;;;;;4992425;28;20417;-81
2022/09/06 06:10:22;;;;;;;4.03;3.73;;;24.80;51.80;;;;;;4974954;28;20413;-81
2022/09/06 06:13:06;;;;;;;3.60;3.30;;;24.80;52.40;;;;;;4989036;28;20420;-81
2022/09/06 06:15:33;;;;;;;3.30;3.00;;;24.80;51.80;;;;;;4975975;28;20488;-82
2022/09/06 06:18:03;;;;;;;4.37;3.97;;;24.80;51.80;;;;;;4992236;28;20509;-80
2022/09/06 06:20:37;;;;;;;3.80;3.40;;;24.80;51.80;;;;;;5051236;28;20425;-80
2022/09/06 06:23:04;;;;;;;4.10;3.70;;;24.80;51.90;;;;;;5018580;28;20882;-81
2022/09/06 06:25:46;;;;;;;3.67;3.37;;;24.80;51.80;;;;;;5034121;28;20454;-80
2022/09/06 06:31:52;;;;;;;4.20;3.90;;;24.80;51.80;;;;;;5051678;28;20477;-80
2022/09/06 06:34:24;;;;;;;6.87;3.60;;;24.80;51.80;;;;;;5035563;28;20411;-80
2022/09/06 06:37:03;;;;;;;3.97;3.60;;;24.80;51.80;;;;;;5033702;28;20406;-81
2022/09/06 06:39:46;;;;;;;3.73;3.33;;;24.80;51.80;;;;;;5035617;28;20481;-81
2022/09/06 06:42:14;;;;;;;4.93;2.90;;;24.80;51.80;;;;;;5035986;28;20409;-82
2022/09/06 06:44:42;;;;;;;3.90;3.53;;;24.80;51.80;;;;;;5053560;28;20450;-80
2022/09/06 06:47:11;;;;;;;3.70;3.40;;;24.80;51.80;;;;;;5035131;28;20421;-80
2022/09/06 06:49:47;;;;;;;3.90;3.40;;;24.80;51.80;;;;;;5036048;28;20418;-81
2022/09/06 06:52:39;;;;;;;3.60;3.30;;;24.80;51.80;;;;;;5035542;28;20418;-81
2022/09/06 06:55:26;;;;;;;5.27;4.20;;;24.80;51.80;;;;;;5035253;28;20418;-82
2022/09/06 06:58:14;;;;;;;3.80;3.50;;;24.80;51.80;;;;;;5035309;28;20437;-80
2022/09/06 07:00:50;;;;;;;3.50;3.20;;;24.80;51.70;;;;;;5020606;28;20461;-80
2022/09/06 07:03:21;;;;;;;4.00;3.70;;;24.80;51.80;;;;;;5034882;28;20418;-83
2022/09/06 07:06:08;;;;;;;;;;;;;;;;;;;;;
2022/09/06 07:08:49;;;;;;;4.10;3.70;;;24.80;52.30;;;;;;5052822;28;20414;-81
2022/09/06 07:11:43;;;;;;;;;;;;;;;;;;;;;
2022/09/06 07:21:05;;;;;;;4.00;3.70;;;24.80;52.00;;;;;;4953613;29;20449;-80
2022/09/06 07:23:37;;;;;;;5.23;4.00;;;24.80;51.90;;;;;;4935101;29;20521;-80
2022/09/06 07:26:05;;;;;;;4.20;3.80;;;24.80;51.90;;;;;;4935739;29;20448;-81
2022/09/06 07:31:31;;;;;;;4.73;4.20;;;24.80;52.10;;;;;;4941135;29;20419;-83
2022/09/06 07:34:04;;;;;;;4.37;4.07;;;24.80;52.20;;;;;;4948253;29;20450;-84
2022/09/06 07:37:06;;;;;;;4.70;4.30;;;24.80;52.20;;;;;;4932236;29;20908;-83
2022/09/06 07:49:25;;;;;;;4.03;3.73;;;24.80;52.60;;;;;;4873213;29;20390;-83
2022/09/06 07:51:52;;;;;;;4.80;4.30;;;24.80;52.60;;;;;;4858334;29;20425;-80
2022/09/06 07:54:36;;;;;;;4.73;4.23;;;24.80;52.30;;;;;;4928348;29;20409;-80
2022/09/06 07:57:29;;;;;;;4.97;4.30;;;24.80;52.50;;;;;;4937033;29;20410;-81
2022/09/06 08:00:22;;;;;;;4.90;4.20;;;24.80;52.50;;;;;;4936004;29;20446;-82
2022/09/06 08:02:55;;;;;;;5.03;4.53;;;24.80;52.40;;;;;;4920341;29;20499;-82
2022/09/06 08:05:30;;;;;;;5.80;5.30;;;24.80;52.50;;;;;;4938931;29;20470;-81
2022/09/06 08:08:00;;;;;;;5.03;4.63;;;24.80;52.40;;;;;;4925008;29;20451;-81
2022/09/06 08:10:39;;;;;;;4.90;4.50;;;24.80;52.30;;;;;;4940419;29;20431;-81
2022/09/06 08:13:07;;;;;;;4.67;4.27;;;24.80;52.70;;;;;;4940089;29;20411;-81
2022/09/06 08:15:36;;;;;;;5.50;5.00;;;24.90;52.90;;;;;;4975137;28;20411;-79
2022/09/06 08:18:15;;;;;;;4.90;4.47;;;24.90;52.70;;;;;;5037806;28;20418;-79
2022/09/06 08:20:55;;;;;;;5.80;5.30;;;24.90;52.60;;;;;;5037894;28;20457;-81
2022/09/06 08:23:27;;;;;;;7.00;4.63;;;24.90;52.80;;;;;;5037707;28;20473;-81
2022/09/06 08:26:03;;;;;;;5.50;5.10;;;24.90;52.50;;;;;;5048092;28;20414;-81
2022/09/06 08:28:36;;;;;;;5.57;5.07;;;24.90;53.20;;;;;;5054227;28;20682;-81
2022/09/06 08:31:42;;;;;;;5.33;4.93;;;24.90;52.50;;;;;;5036260;28;20390;-81
2022/09/06 08:34:13;;;;;;;5.20;4.43;;;24.90;52.40;;;;;;5052521;28;20421;-81
2022/09/06 08:36:51;;;;;;;5.13;4.70;;;24.90;52.80;;;;;;5035831;28;20802;-82
2022/09/06 08:39:23;;;;;;;5.20;4.70;;;24.90;52.60;;;;;;5034404;28;20398;-82
2022/09/06 08:42:11;;;;;;;6.90;5.30;;;24.90;52.70;;;;;;5035853;28;20434;-81
2022/09/06 08:45:33;;;;;;;6.10;5.60;;;24.90;52.80;;;;;;5052502;28;20465;-82
2022/09/06 08:48:14;;;;;;;6.30;5.70;;;25.00;52.50;;;;;;5019666;28;20453;-81
2022/09/06 08:50:58;;;;;;;6.17;5.57;;;24.90;52.70;;;;;;5054995;28;20393;-81
2022/09/06 09:00:06;;;;;;;5.80;5.20;;;25.00;52.90;;;;;;5055735;28;20373;-82
2022/09/06 09:02:55;;;;;;;5.20;4.70;;;24.90;52.90;;;;;;5037786;28;20608;-81
2022/09/06 09:05:52;;;;;;;5.90;5.33;;;25.00;52.80;;;;;;5055226;28;20465;-80
2022/09/06 09:09:16;;;;;;;7.73;5.10;;;25.00;52.60;;;;;;4955430;29;20451;-81
2022/09/06 09:11:52;;;;;;;6.93;6.10;;;25.00;52.60;;;;;;4872086;29;20450;-78
2022/09/06 09:14:44;;;;;;;;;;;;;;;;;;;;;
2022/09/06 09:24:31;;;;;;;5.03;4.63;;;25.00;52.80;;;;;;4882046;29;20445;-81
2022/09/06 09:27:21;;;;;;;5.87;5.37;;;25.00;52.90;;;;;;4865680;29;20445;-82
2022/09/06 09:30:17;;;;;;;5.20;4.80;;;25.00;53.00;;;;;;4866645;29;20510;-81
2022/09/06 09:39:38;;;;;;;6.37;5.60;;;25.10;52.80;;;;;;4863033;29;20478;-81
2022/09/06 09:42:09;;;;;;;5.90;5.40;;;25.00;52.70;;;;;;4846544;29;20501;-81
2022/09/06 09:51:39;;;;;;;5.67;4.43;;;25.10;53.00;;;;;;4917390;29;20457;-80
2022/09/06 09:54:24;;;;;;;;;;;;;;;;;;;;;
2022/09/06 10:00:13;;;;;;;5.83;5.30;;;25.10;53.00;;;;;;4881528;29;20389;-81
2022/09/06 10:03:01;;;;;;;6.57;5.83;;;25.10;53.10;;;;;;4880792;29;20429;-80
2022/09/06 10:05:41;;;;;;;5.77;5.17;;;25.10;53.30;;;;;;4880057;29;20521;-82
2022/09/06 10:08:13;;;;;;;6.43;5.77;;;25.10;53.30;;;;;;4880373;29;20418;-81
2022/09/06 10:10:52;;;;;;;6.23;5.63;;;25.20;53.40;;;;;;4881092;29;20446;-82
2022/09/06 10:13:30;;;;;;;6.00;5.20;;;25.10;53.40;;;;;;4920784;29;20422;-81
2022/09/06 10:19:44;;;;;;;6.07;5.47;;;25.20;53.40;;;;;;4955743;29;20402;-82
2022/09/06 10:29:14;;;;;;;6.30;4.87;;;25.20;53.20;;;;;;4976108;28;20413;-81
2022/09/06 10:35:45;;;;;;;5.37;4.87;;;25.20;53.20;;;;;;4881473;29;20398;-80
2022/09/06 10:38:55;;;;;;;5.63;5.13;;;25.20;53.20;;;;;;4841657;29;20866;-82
2022/09/06 10:42:03;;;;;;;5.50;5.00;;;25.20;53.10;;;;;;4789716;30;20423;-82
2022/09/06 10:44:56;;;;;;;5.57;5.03;;;25.20;53.10;;;;;;4788272;30;20505;-81
2022/09/06 10:47:44;;;;;;;7.20;4.73;;;25.20;53.40;;;;;;4788495;30;20443;-81
2022/09/06 10:57:00;;;;;;;6.93;5.20;;;25.20;53.10;;;;;;4752239;30;20465;-82
2022/09/06 11:06:48;;;;;;;4.90;4.50;;;25.20;53.10;;;;;;4823283;29;20423;-80
2022/09/06 11:10:01;;;;;;;;;;;;;;;;;;;;;
2022/09/06 11:12:58;;;;;;;5.50;5.10;;;25.20;53.20;;;;;;4787367;30;20914;-80
2022/09/06 11:18:59;;;;;;;5.37;4.87;;;25.20;53.20;;;;;;4817949;29;20397;-81
2022/09/06 11:22:03;;;;;;;5.47;4.97;;;25.20;53.30;;;;;;4809908;29;20409;-80
2022/09/06 11:25:09;;;;;;;5.53;5.00;;;25.20;53.30;;;;;;4795086;29;20465;-80
2022/09/06 11:27:46;;;;;;;5.37;4.90;;;25.20;53.20;;;;;;4791698;29;20484;-80
2022/09/06 11:30:24;;;;;;;5.23;4.83;;;25.20;53.20;;;;;;4807084;29;20429;-80
2022/09/06 11:33:21;;;;;;;5.23;4.83;;;25.30;53.30;;;;;;4810627;29;20432;-80
2022/09/06 11:36:23;;;;;;;5.03;4.53;;;25.20;53.10;;;;;;4807399;29;20433;-80
2022/09/06 11:39:02;;;;;;;5.47;4.97;;;25.30;53.10;;;;;;4856634;29;20449;-80
2022/09/06 11:48:35;;;;;;;4.63;4.23;;;25.30;53.10;;;;;;4871517;29;20390;-82
2022/09/06 11:51:05;;;;;;;5.00;4.00;;;25.30;53.00;;;;;;4898358;29;20430;-81
2022/09/06 11:54:38;;;;;;;4.87;4.37;;;25.30;53.00;;;;;;4894589;29;20421;-81
2022/09/06 11:57:16;;;;;;;5.90;4.37;;;25.30;52.90;;;;;;4825474;29;20453;-83
2022/09/06 11:59:47;;;;;;;5.00;4.50;;;25.30;52.80;;;;;;4827455;29;20440;-81
2022/09/06 12:02:43;;;;;;;4.30;3.90;;;25.30;52.80;;;;;;4827171;29;20432;-80
2022/09/06 12:05:18;;;;;;;4.30;3.90;;;25.30;52.80;;;;;;4812463;29;20460;-81
2022/09/06 12:08:21;;;;;;;4.37;4.07;;;25.30;52.80;;;;;;4827009;29;20448;-82
2022/09/06 12:11:33;;;;;;;3.90;3.60;;;25.30;52.80;;;;;;4826707;29;20416;-79
2022/09/06 12:14:41;;;;;;;4.57;4.17;;;25.30;52.70;;;;;;4827530;29;20441;-82
2022/09/06 12:17:10;;;;;;;4.43;4.03;;;25.30;52.80;;;;;;4756160;30;20423;-80
2022/09/06 12:20:14;;;;;;;3.70;3.40;;;25.30;52.70;;;;;;4771037;30;20408;-81
2022/09/06 12:26:54;;;;;;;5.07;3.87;;;25.30;52.70;;;;;;4755516;30;20436;-81
2022/09/06 12:29:30;;;;;;;4.53;4.23;;;25.30;52.70;;;;;;4753224;30;20455;-81
2022/09/06 12:32:11;;;;;;;4.40;4.00;;;25.30;52.70;;;;;;4752757;30;20466;-81
2022/09/06 12:35:18;;;;;;;3.93;3.53;;;25.30;53.30;;;;;;4791303;30;20422;-80
2022/09/06 12:41:12;;;;;;;5.27;4.07;;;25.30;52.60;;;;;;4844389;29;20392;-81
2022/09/06 13:00:26;;;;;;;4.50;3.90;;;25.30;52.70;;;;;;4844261;29;20408;-81
2022/09/06 13:06:33;;;;;;;3.90;3.50;;;25.30;52.70;;;;;;4899658;29;20446;-81
2022/09/06 13:09:33;;;;;;;5.17;4.20;;;25.30;52.60;;;;;;4899373;29;20425;-81
2022/09/06 13:13:01;;;;;;;4.80;4.20;;;25.40;52.70;;;;;;4899299;29;20445;-82
2022/09/06 13:22:33;;;;;;;4.53;4.10;;;25.30;52.70;;;;;;4897917;29;21116;-82
2022/09/06 13:25:27;;;;;;;4.17;3.77;;;25.40;52.80;;;;;;4896664;29;20489;-81
2022/09/06 13:28:06;;;;;;;4.00;3.60;;;25.40;52.80;;;;;;4936029;29;20423;-82
2022/09/06 13:34:47;;;;;;;3.80;3.40;;;25.40;52.70;;;;;;4965592;29;20405;-79
2022/09/06 13:41:27;;;;;;;3.57;3.10;;;25.40;52.60;;;;;;4937888;29;20415;-81
2022/09/06 13:44:28;;;;;;;3.67;3.37;;;25.40;52.60;;;;;;4937826;29;20486;-82
2022/09/06 13:54:12;;;;;;;3.50;3.00;;;25.40;52.60;;;;;;4918327;29;20449;-80
2022/09/06 13:57:00;;;;;;;3.50;3.20;;;25.40;52.60;;;;;;4902663;29;20526;-80
2022/09/06 13:59:57;;;;;;;3.90;3.57;;;25.40;52.60;;;;;;4918107;29;20409;-80
2022/09/06 14:02:31;;;;;;;3.30;3.00;;;25.40;52.70;;;;;;4900463;29;20417;-81
2022/09/06 14:05:14;;;;;;;4.23;3.83;;;25.40;52.70;;;;;;4901523;29;20484;-81
2022/09/06 14:07:55;;;;;;;4.00;3.60;;;25.40;52.70;;;;;;4918564;29;20433;-81
2022/09/06 14:10:36;;;;;;;3.60;3.30;;;25.40;52.60;;;;;;4902647;29;20409;-81
2022/09/06 14:13:10;;;;;;;3.93;3.57;;;25.40;52.50;;;;;;4917508;29;20488;-80
2022/09/06 14:16:24;;;;;;;4.50;2.93;;;25.40;52.50;;;;;;4898960;29;20410;-81
2022/09/06 14:18:52;;;;;;;3.00;2.70;;;25.40;52.50;;;;;;4886140;29;20438;-81
2022/09/06 14:21:25;;;;;;;3.60;3.30;;;25.40;52.50;;;;;;4906048;29;20436;-80
2022/09/06 14:24:20;;;;;;;3.53;3.20;;;25.40;52.40;;;;;;4916937;29;20459;-80
2022/09/06 14:27:07;;;;;;;4.40;3.90;;;25.40;53.00;;;;;;4957061;28;20421;-80
2022/09/06 14:29:35;;;;;;;4.10;3.70;;;25.40;52.40;;;;;;4993410;28;20408;-81
2022/09/06 14:32:14;;;;;;;4.13;3.60;;;25.40;52.40;;;;;;4997539;28;20495;-81
2022/09/06 14:34:54;;;;;;;3.40;3.10;;;25.40;52.40;;;;;;4923588;29;20508;-81
2022/09/06 14:40:46;;;;;;;4.37;3.87;;;25.50;52.40;;;;;;4954855;28;20415;-81
2022/09/06 14:43:25;;;;;;;3.43;3.13;;;25.40;52.40;;;;;;4938931;29;20454;-81
2022/09/06 14:46:12;;;;;;;4.77;3.57;;;25.40;52.40;;;;;;4942217;28;20458;-81
2022/09/06 14:48:43;;;;;;;3.70;3.40;;;25.40;52.40;;;;;;4962041;28;20432;-81
2022/09/06 14:51:46;;;;;;;6.10;3.40;;;25.40;52.40;;;;;;4988158;28;20475;-82
2022/09/06 14:54:28;;;;;;;3.27;3.00;;;25.40;52.40;;;;;;4976333;28;20430;-81
2022/09/06 14:57:17;;;;;;;5.23;3.10;;;25.40;52.30;;;;;;4993242;28;20397;-81
2022/09/06 14:59:51;;;;;;;4.00;3.03;;;25.40;52.30;;;;;;4977190;28;20413;-81
2022/09/06 15:02:36;;;;;;;3.20;2.90;;;25.40;52.30;;;;;;4977308;28;20413;-82
2022/09/06 15:05:13;;;;;;;4.10;3.20;;;25.40;52.30;;;;;;4961335;28;20456;-81
2022/09/06 15:07:45;;;;;;;4.23;3.43;;;25.40;52.30;;;;;;4976435;28;20441;-80
2022/09/06 15:10:30;;;;;;;3.83;3.43;;;25.40;52.20;;;;;;4977269;28;20795;-82
2022/09/06 15:12:59;;;;;;;3.50;3.20;;;25.40;52.20;;;;;;4976755;28;20413;-81
2022/09/06 15:15:38;;;;;;;3.30;3.00;;;25.40;52.20;;;;;;4961042;28;20445;-80
2022/09/06 15:18:13;;;;;;;3.53;3.10;;;25.50;52.20;;;;;;4993596;28;20449;-81
2022/09/06 15:20:43;;;;;;;3.17;2.87;;;25.50;52.20;;;;;;4993938;28;20404;-81
2022/09/06 15:26:37;;;;;;;5.33;3.10;;;25.50;52.20;;;;;;5053723;28;20431;-83
2022/09/06 15:29:07;;;;;;;3.77;2.83;;;25.50;52.30;;;;;;5038426;28;20420;-82
2022/09/06 15:32:11;;;;;;;3.80;3.10;;;25.50;52.30;;;;;;5035958;28;20386;-81
2022/09/06 15:34:47;;;;;;;3.30;3.07;;;25.50;52.40;;;;;;5055095;28;20414;-80
2022/09/06 15:37:23;;;;;;;6.27;3.23;;;25.50;52.30;;;;;;5053955;28;20399;-81
2022/09/06 15:40:01;;;;;;;4.70;3.37;;;25.50;52.30;;;;;;5037257;28;20411;-81
2022/09/06 15:42:35;;;;;;;3.33;3.13;;;25.50;52.20;;;;;;5047809;28;20509;-81
2022/09/06 15:45:06;;;;;;;2.90;2.70;;;25.50;52.20;;;;;;5037255;28;20462;-81
2022/09/06 15:47:55;;;;;;;4.03;2.63;;;25.50;52.20;;;;;;5013020;28;20412;-81
2022/09/06 15:50:35;;;;;;;3.67;2.90;;;25.50;52.20;;;;;;5033025;28;20425;-81
2022/09/06 15:53:20;;;;;;;2.83;2.57;;;25.50;52.20;;;;;;5052354;28;20392;-80
2022/09/06 15:56:00;;;;;;;5.30;2.80;;;25.50;52.20;;;;;;5034544;28;20431;-80
2022/09/06 15:58:45;;;;;;;5.30;2.80;;;25.50;52.20;;;;;;5052203;28;20442;-80
2022/09/06 16:04:42;;;;;;;3.40;2.63;;;25.60;52.20;;;;;;5053591;28;20444;-81
2022/09/06 16:07:24;;;;;;;3.23;2.93;;;25.50;52.10;;;;;;5052927;28;20411;-80
2022/09/06 16:10:37;;;;;;;4.67;2.87;;;25.50;52.20;;;;;;5053089;28;20426;-81
